Terminal Aerodrome Forecast
Issued by NWS

Home | Current Version | Previous Version | Text Only | Print | Product List | Glossary On
Versions: 1 2 3 4 5 6 7 8 9 10 11 12 13 14 15 16 17 18 19 20 21 22 23 24 25 26 27 28 29 30 31
000
FTUS45 KBYZ 030520
TAFLVM
TAF
KLVM 030520Z 0306/0406 09013G20KT 1SM -SN BR SCT005 BKN013
      TEMPO 0306/0310 3SM -SN BLSN OVC020
     FM031000 08015G25KT 3SM -SN BLSN SCT006 OVC015
     FM031500 VRB06KT 6SM -SN BKN010 OVC015
     FM031800 31015KT P6SM VCSH SCT006 OVC014
     FM040200 26011KT P6SM SKC=

USA.gov is the U.S. government's official web portal to all federal, state and local government web resources and services.